sensor_id;sensor_type;location;lat;lon;timestamp;temperature;humidity
4487;DHT22;2256;48.740;9.106;2023-03-01T00:02:12;-1.70;99.90
4487;DHT22;2256;48.740;9.106;2023-03-01T00:04:39;-1.70;99.90
4487;DHT22;2256;48.740;9.106;2023-03-01T00:07:05;-1.70;99.90
4487;DHT22;2256;48.740;9.106;2023-03-01T00:09:35;-1.70;99.90
4487;DHT22;2256;48.740;9.106;2023-03-01T00:12:02;-1.70;99.90
4487;DHT22;2256;48.740;9.106;2023-03-01T00:14:29;-1.80;99.90
4487;DHT22;2256;48.740;9.106;2023-03-01T00:16:55;-1.80;99.90
4487;DHT22;2256;48.740;9.106;2023-03-01T00:19:22;-1.80;99.90
4487;DHT22;2256;48.740;9.106;2023-03-01T00:21:49;-1.80;99.90
4487;DHT22;2256;48.740;9.106;2023-03-01T00:24:16;-1.80;99.90
4487;DHT22;2256;48.740;9.106;2023-03-01T00:26:44;-1.80;99.90
4487;DHT22;2256;48.740;9.106;2023-03-01T00:29:12;-2.00;99.90
4487;DHT22;2256;48.740;9.106;2023-03-01T00:31:38;-2.10;99.90
4487;DHT22;2256;48.740;9.106;2023-03-01T00:34:05;-2.10;99.90
4487;DHT22;2256;48.740;9.106;2023-03-01T00:36:34;-2.20;99.90
4487;DHT22;2256;48.740;9.106;2023-03-01T00:39:02;-2.30;99.90
4487;DHT22;2256;48.740;9.106;2023-03-01T00:41:29;-2.30;99.90
4487;DHT22;2256;48.740;9.106;2023-03-01T00:43:57;-2.30;99.90
4487;DHT22;2256;48.740;9.106;2023-03-01T00:46:26;-2.30;99.90
4487;DHT22;2256;48.740;9.106;2023-03-01T00:48:53;-2.30;99.90
4487;DHT22;2256;48.740;9.106;2023-03-01T00:51:21;-2.30;99.90
4487;DHT22;2256;48.740;9.106;2023-03-01T00:53:50;-2.30;99.90
4487;DHT22;2256;48.740;9.106;2023-03-01T00:56:17;-2.30;99.90
4487;DHT22;2256;48.740;9.106;2023-03-01T00:58:44;-2.30;99.90
4487;DHT22;2256;48.740;9.106;2023-03-01T01:01:14;-2.30;99.90
4487;DHT22;2256;48.740;9.106;2023-03-01T01:03:45;-2.30;99.90
4487;DHT22;2256;48.740;9.106;2023-03-01T01:06:17;-2.30;99.90
4487;DHT22;2256;48.740;9.106;2023-03-01T01:08:45;-2.40;99.90
4487;DHT22;2256;48.740;9.106;2023-03-01T01:11:12;-2.40;99.90
4487;DHT22;2256;48.740;9.106;2023-03-01T01:13:40;-2.50;99.90
4487;DHT22;2256;48.740;9.106;2023-03-01T01:16:08;-2.50;99.90
4487;DHT22;2256;48.740;9.106;2023-03-01T01:18:36;-2.50;99.90
4487;DHT22;2256;48.740;9.106;2023-03-01T01:21:05;-2.50;99.90
4487;DHT22;2256;48.740;9.106;2023-03-01T01:23:32;-2.60;99.90
4487;DHT22;2256;48.740;9.106;2023-03-01T01:26:04;-2.70;99.90
4487;DHT22;2256;48.740;9.106;2023-03-01T01:28:30;-2.60;99.90
4487;DHT22;2256;48.740;9.106;2023-03-01T01:30:58;-2.60;99.90
4487;DHT22;2256;48.740;9.106;2023-03-01T01:33:25;-2.70;99.90
4487;DHT22;2256;48.740;9.106;2023-03-01T01:35:54;-2.70;99.90
4487;DHT22;2256;48.740;9.106;2023-03-01T01:38:21;-2.70;99.90
4487;DHT22;2256;48.740;9.106;2023-03-01T01:40:48;-2.70;99.90
4487;DHT22;2256;48.740;9.106;2023-03-01T01:43:19;-2.60;99.90
4487;DHT22;2256;48.740;9.106;2023-03-01T01:45:47;-2.70;99.90
4487;DHT22;2256;48.740;9.106;2023-03-01T01:48:17;-2.70;99.90
4487;DHT22;2256;48.740;9.106;2023-03-01T01:50:53;-2.70;99.90
4487;DHT22;2256;48.740;9.106;2023-03-01T01:53:23;-2.70;99.90
4487;DHT22;2256;48.740;9.106;2023-03-01T01:55:56;-2.80;99.90
4487;DHT22;2256;48.740;9.106;2023-03-01T01:58:26;-2.90;99.90
4487;DHT22;2256;48.740;9.106;2023-03-01T02:00:54;-2.70;99.90
4487;DHT22;2256;48.740;9.106;2023-03-01T02:03:25;-2.70;99.90
4487;DHT22;2256;48.740;9.106;2023-03-01T02:05:57;-2.60;99.90
4487;DHT22;2256;48.740;9.106;2023-03-01T02:08:31;-2.40;99.90
4487;DHT22;2256;48.740;9.106;2023-03-01T02:11:01;-2.30;99.90
4487;DHT22;2256;48.740;9.106;2023-03-01T02:13:30;-2.20;99.90
4487;DHT22;2256;48.740;9.106;2023-03-01T02:15:57;-2.10;99.90
4487;DHT22;2256;48.740;9.106;2023-03-01T02:18:24;-2.10;99.90
4487;DHT22;2256;48.740;9.106;2023-03-01T02:21:02;-1.90;99.90
4487;DHT22;2256;48.740;9.106;2023-03-01T02:23:34;-1.70;99.90
4487;DHT22;2256;48.740;9.106;2023-03-01T02:26:05;-1.60;99.90
4487;DHT22;2256;48.740;9.106;2023-03-01T02:28:36;-1.60;99.90
4487;DHT22;2256;48.740;9.106;2023-03-01T02:31:05;-1.70;99.90
4487;DHT22;2256;48.740;9.106;2023-03-01T02:33:51;-1.70;99.90
4487;DHT22;2256;48.740;9.106;2023-03-01T02:36:19;-1.50;99.90
4487;DHT22;2256;48.740;9.106;2023-03-01T02:38:47;-1.40;99.90
4487;DHT22;2256;48.740;9.106;2023-03-01T02:41:16;-1.50;99.90
4487;DHT22;2256;48.740;9.106;2023-03-01T02:43:45;-1.40;99.90
4487;DHT22;2256;48.740;9.106;2023-03-01T02:46:17;-1.30;99.90
4487;DHT22;2256;48.740;9.106;2023-03-01T02:48:45;-1.10;99.90
4487;DHT22;2256;48.740;9.106;2023-03-01T02:51:41;-1.00;99.90
4487;DHT22;2256;48.740;9.106;2023-03-01T02:54:17;-1.10;99.90
4487;DHT22;2256;48.740;9.106;2023-03-01T02:56:48;-1.20;99.90
4487;DHT22;2256;48.740;9.106;2023-03-01T02:59:19;-1.20;99.90
4487;DHT22;2256;48.740;9.106;2023-03-01T03:01:46;-1.10;99.90
4487;DHT22;2256;48.740;9.106;2023-03-01T03:04:15;-1.10;99.90
4487;DHT22;2256;48.740;9.106;2023-03-01T03:06:43;-1.00;99.90
4487;DHT22;2256;48.740;9.106;2023-03-01T03:09:11;-1.10;99.90
4487;DHT22;2256;48.740;9.106;2023-03-01T03:11:38;-1.10;99.90
4487;DHT22;2256;48.740;9.106;2023-03-01T03:14:07;-1.00;99.90
4487;DHT22;2256;48.740;9.106;2023-03-01T03:16:40;-0.90;99.90
4487;DHT22;2256;48.740;9.106;2023-03-01T03:19:07;-0.90;99.90
4487;DHT22;2256;48.740;9.106;2023-03-01T03:21:35;-1.10;99.90
4487;DHT22;2256;48.740;9.106;2023-03-01T03:24:03;-1.20;99.90
4487;DHT22;2256;48.740;9.106;2023-03-01T03:26:30;-1.20;99.90
4487;DHT22;2256;48.740;9.106;2023-03-01T03:28:57;-1.20;99.90
4487;DHT22;2256;48.740;9.106;2023-03-01T03:31:25;-1.10;99.90
4487;DHT22;2256;48.740;9.106;2023-03-01T03:33:54;-1.10;99.90
4487;DHT22;2256;48.740;9.106;2023-03-01T03:36:24;-1.00;99.90
4487;DHT22;2256;48.740;9.106;2023-03-01T03:38:53;-1.10;99.90
4487;DHT22;2256;48.740;9.106;2023-03-01T03:41:20;-1.10;99.90
4487;DHT22;2256;48.740;9.106;2023-03-01T03:43:47;-1.10;99.90
4487;DHT22;2256;48.740;9.106;2023-03-01T03:46:14;-1.20;99.90
4487;DHT22;2256;48.740;9.106;2023-03-01T03:48:44;-1.00;99.90
4487;DHT22;2256;48.740;9.106;2023-03-01T03:51:14;-1.00;99.90
4487;DHT22;2256;48.740;9.106;2023-03-01T03:53:42;-1.00;99.90
4487;DHT22;2256;48.740;9.106;2023-03-01T03:56:09;-1.00;99.90
4487;DHT22;2256;48.740;9.106;2023-03-01T03:58:38;-1.00;99.90
4487;DHT22;2256;48.740;9.106;2023-03-01T04:01:05;-1.10;99.90
4487;DHT22;2256;48.740;9.106;2023-03-01T04:03:32;-1.10;99.90
4487;DHT22;2256;48.740;9.106;2023-03-01T04:06:01;-1.00;99.90
4487;DHT22;2256;48.740;9.106;2023-03-01T04:08:29;-0.90;99.90
4487;DHT22;2256;48.740;9.106;2023-03-01T04:11:01;-0.90;99.90
4487;DHT22;2256;48.740;9.106;2023-03-01T04:13:50;-1.00;99.90
4487;DHT22;2256;48.740;9.106;2023-03-01T04:16:17;-1.00;99.90
4487;DHT22;2256;48.740;9.106;2023-03-01T04:18:44;-1.00;99.90
4487;DHT22;2256;48.740;9.106;2023-03-01T04:21:11;-0.90;99.90
4487;DHT22;2256;48.740;9.106;2023-03-01T04:23:40;-0.80;99.90
4487;DHT22;2256;48.740;9.106;2023-03-01T04:26:07;-0.80;99.90
4487;DHT22;2256;48.740;9.106;2023-03-01T04:28:35;-0.80;99.90
4487;DHT22;2256;48.740;9.106;2023-03-01T04:31:04;-0.80;99.90
4487;DHT22;2256;48.740;9.106;2023-03-01T04:33:38;-0.80;99.90
4487;DHT22;2256;48.740;9.106;2023-03-01T04:36:07;-0.90;99.90
4487;DHT22;2256;48.740;9.106;2023-03-01T04:38:35;-0.90;99.90
4487;DHT22;2256;48.740;9.106;2023-03-01T04:41:04;-0.90;99.90
4487;DHT22;2256;48.740;9.106;2023-03-01T04:43:32;-0.90;99.90
4487;DHT22;2256;48.740;9.106;2023-03-01T04:46:03;-0.80;99.90
4487;DHT22;2256;48.740;9.106;2023-03-01T04:48:32;-0.70;99.90
4487;DHT22;2256;48.740;9.106;2023-03-01T04:50:59;-0.80;99.90
4487;DHT22;2256;48.740;9.106;2023-03-01T04:53:26;-0.70;99.90
4487;DHT22;2256;48.740;9.106;2023-03-01T04:55:55;-0.70;99.90
4487;DHT22;2256;48.740;9.106;2023-03-01T04:58:23;-0.70;99.90
4487;DHT22;2256;48.740;9.106;2023-03-01T05:00:52;-0.80;99.90
4487;DHT22;2256;48.740;9.106;2023-03-01T05:03:19;-0.90;99.90
4487;DHT22;2256;48.740;9.106;2023-03-01T05:05:49;-0.90;99.90
4487;DHT22;2256;48.740;9.106;2023-03-01T05:08:16;-0.80;99.90
4487;DHT22;2256;48.740;9.106;2023-03-01T05:10:45;-0.70;99.90
4487;DHT22;2256;48.740;9.106;2023-03-01T05:13:13;-0.80;99.90
4487;DHT22;2256;48.740;9.106;2023-03-01T05:15:42;-0.80;99.90
4487;DHT22;2256;48.740;9.106;2023-03-01T05:18:08;-0.90;99.90
4487;DHT22;2256;48.740;9.106;2023-03-01T05:20:37;-0.70;99.90
4487;DHT22;2256;48.740;9.106;2023-03-01T05:23:05;-0.60;99.90
4487;DHT22;2256;48.740;9.106;2023-03-01T05:25:32;-0.90;99.90
4487;DHT22;2256;48.740;9.106;2023-03-01T05:28:00;-0.70;99.90
4487;DHT22;2256;48.740;9.106;2023-03-01T05:30:30;-0.60;99.90
4487;DHT22;2256;48.740;9.106;2023-03-01T05:33:00;-0.60;99.90
4487;DHT22;2256;48.740;9.106;2023-03-01T05:35:27;-0.70;99.90
4487;DHT22;2256;48.740;9.106;2023-03-01T05:37:54;-0.60;99.90
4487;DHT22;2256;48.740;9.106;2023-03-01T05:40:23;-0.70;99.90
4487;DHT22;2256;48.740;9.106;2023-03-01T05:42:52;-0.70;99.90
4487;DHT22;2256;48.740;9.106;2023-03-01T05:45:19;-0.70;99.90
4487;DHT22;2256;48.740;9.106;2023-03-01T05:47:47;-0.60;99.90
4487;DHT22;2256;48.740;9.106;2023-03-01T05:50:17;-0.60;99.90
4487;DHT22;2256;48.740;9.106;2023-03-01T05:52:46;-0.60;99.90
4487;DHT22;2256;48.740;9.106;2023-03-01T05:55:14;-0.70;99.90
4487;DHT22;2256;48.740;9.106;2023-03-01T05:57:41;-0.70;99.90
4487;DHT22;2256;48.740;9.106;2023-03-01T06:00:09;-0.60;99.90
4487;DHT22;2256;48.740;9.106;2023-03-01T06:02:36;-0.50;99.90
4487;DHT22;2256;48.740;9.106;2023-03-01T06:05:05;-0.40;99.90
4487;DHT22;2256;48.740;9.106;2023-03-01T06:07:34;-0.50;99.90
4487;DHT22;2256;48.740;9.106;2023-03-01T06:10:01;-0.60;99.90
4487;DHT22;2256;48.740;9.106;2023-03-01T06:12:30;-0.60;99.90
4487;DHT22;2256;48.740;9.106;2023-03-01T06:14:58;-0.70;99.90
4487;DHT22;2256;48.740;9.106;2023-03-01T06:17:25;-0.60;99.90
4487;DHT22;2256;48.740;9.106;2023-03-01T06:19:52;-0.60;99.90
4487;DHT22;2256;48.740;9.106;2023-03-01T06:22:19;-0.50;99.90
4487;DHT22;2256;48.740;9.106;2023-03-01T06:24:47;-0.50;99.90
4487;DHT22;2256;48.740;9.106;2023-03-01T06:27:14;-0.50;99.90
4487;DHT22;2256;48.740;9.106;2023-03-01T06:29:41;-0.40;99.90
4487;DHT22;2256;48.740;9.106;2023-03-01T06:32:08;-0.40;99.90
4487;DHT22;2256;48.740;9.106;2023-03-01T06:34:35;-0.40;99.90
4487;DHT22;2256;48.740;9.106;2023-03-01T06:37:01;-0.40;99.90
4487;DHT22;2256;48.740;9.106;2023-03-01T06:39:30;-0.60;99.90
4487;DHT22;2256;48.740;9.106;2023-03-01T06:41:59;-0.40;99.90
4487;DHT22;2256;48.740;9.106;2023-03-01T06:44:26;-0.40;99.90
4487;DHT22;2256;48.740;9.106;2023-03-01T06:46:53;-0.50;99.90
4487;DHT22;2256;48.740;9.106;2023-03-01T06:49:20;-0.50;99.90
4487;DHT22;2256;48.740;9.106;2023-03-01T06:51:47;-0.60;99.90
4487;DHT22;2256;48.740;9.106;2023-03-01T06:54:14;-0.50;99.90
4487;DHT22;2256;48.740;9.106;2023-03-01T06:56:43;-0.50;99.90
4487;DHT22;2256;48.740;9.106;2023-03-01T06:59:11;-0.50;99.90
4487;DHT22;2256;48.740;9.106;2023-03-01T07:01:38;-0.60;99.90
4487;DHT22;2256;48.740;9.106;2023-03-01T07:04:05;-0.50;99.90
4487;DHT22;2256;48.740;9.106;2023-03-01T07:06:32;-0.40;99.90
4487;DHT22;2256;48.740;9.106;2023-03-01T07:09:00;-0.30;99.90
4487;DHT22;2256;48.740;9.106;2023-03-01T07:11:26;-0.10;99.90
4487;DHT22;2256;48.740;9.106;2023-03-01T07:13:53;-0.10;99.90
4487;DHT22;2256;48.740;9.106;2023-03-01T07:16:22;0.00;99.90
4487;DHT22;2256;48.740;9.106;2023-03-01T07:18:49;0.10;99.90
4487;DHT22;2256;48.740;9.106;2023-03-01T07:21:15;0.10;99.90
4487;DHT22;2256;48.740;9.106;2023-03-01T07:23:42;0.30;99.90
4487;DHT22;2256;48.740;9.106;2023-03-01T07:26:09;0.30;99.90
4487;DHT22;2256;48.740;9.106;2023-03-01T07:28:36;0.30;99.90
4487;DHT22;2256;48.740;9.106;2023-03-01T07:31:05;0.50;99.90
4487;DHT22;2256;48.740;9.106;2023-03-01T07:33:34;0.40;99.90
4487;DHT22;2256;48.740;9.106;2023-03-01T07:36:03;0.50;99.90
4487;DHT22;2256;48.740;9.106;2023-03-01T07:38:30;0.70;99.90
4487;DHT22;2256;48.740;9.106;2023-03-01T07:41:04;1.10;99.90
4487;DHT22;2256;48.740;9.106;2023-03-01T07:43:32;1.50;99.90
4487;DHT22;2256;48.740;9.106;2023-03-01T07:46:00;1.60;99.90
4487;DHT22;2256;48.740;9.106;2023-03-01T07:48:29;1.90;99.90
4487;DHT22;2256;48.740;9.106;2023-03-01T07:50:59;1.80;99.90
4487;DHT22;2256;48.740;9.106;2023-03-01T07:53:27;2.00;99.90
4487;DHT22;2256;48.740;9.106;2023-03-01T07:56:05;2.30;99.90
4487;DHT22;2256;48.740;9.106;2023-03-01T07:58:34;1.90;99.90
4487;DHT22;2256;48.740;9.106;2023-03-01T08:01:01;1.80;99.90
4487;DHT22;2256;48.740;9.106;2023-03-01T08:03:28;2.00;99.90
4487;DHT22;2256;48.740;9.106;2023-03-01T08:05:55;2.50;99.90
4487;DHT22;2256;48.740;9.106;2023-03-01T08:08:23;2.60;99.90
4487;DHT22;2256;48.740;9.106;2023-03-01T08:10:52;2.60;99.90
4487;DHT22;2256;48.740;9.106;2023-03-01T08:13:18;2.40;99.90
4487;DHT22;2256;48.740;9.106;2023-03-01T08:15:48;2.50;99.90
4487;DHT22;2256;48.740;9.106;2023-03-01T08:18:16;2.30;99.90
4487;DHT22;2256;48.740;9.106;2023-03-01T08:20:42;2.40;99.90
4487;DHT22;2256;48.740;9.106;2023-03-01T08:23:09;2.50;99.90
4487;DHT22;2256;48.740;9.106;2023-03-01T08:25:38;2.60;99.90
4487;DHT22;2256;48.740;9.106;2023-03-01T08:28:05;2.30;99.90
4487;DHT22;2256;48.740;9.106;2023-03-01T08:30:33;2.50;99.90
4487;DHT22;2256;48.740;9.106;2023-03-01T08:33:00;2.60;99.90
4487;DHT22;2256;48.740;9.106;2023-03-01T08:35:27;2.60;99.90
4487;DHT22;2256;48.740;9.106;2023-03-01T08:37:53;2.80;99.90
4487;DHT22;2256;48.740;9.106;2023-03-01T08:40:20;3.00;99.90
4487;DHT22;2256;48.740;9.106;2023-03-01T08:42:48;3.80;99.50
4487;DHT22;2256;48.740;9.106;2023-03-01T08:45:15;4.50;98.00
4487;DHT22;2256;48.740;9.106;2023-03-01T08:47:44;5.00;97.40
4487;DHT22;2256;48.740;9.106;2023-03-01T08:50:11;5.10;96.80
4487;DHT22;2256;48.740;9.106;2023-03-01T08:52:39;5.10;96.80
4487;DHT22;2256;48.740;9.106;2023-03-01T08:55:07;5.40;96.50
4487;DHT22;2256;48.740;9.106;2023-03-01T08:57:34;5.80;96.30
4487;DHT22;2256;48.740;9.106;2023-03-01T09:00:03;6.40;95.40
4487;DHT22;2256;48.740;9.106;2023-03-01T09:02:34;7.20;94.40
4487;DHT22;2256;48.740;9.106;2023-03-01T09:05:01;7.20;94.00
4487;DHT22;2256;48.740;9.106;2023-03-01T09:07:28;7.00;93.70
4487;DHT22;2256;48.740;9.106;2023-03-01T09:09:55;7.00;93.60
4487;DHT22;2256;48.740;9.106;2023-03-01T09:12:22;7.70;93.10
4487;DHT22;2256;48.740;9.106;2023-03-01T09:14:50;8.00;92.90
4487;DHT22;2256;48.740;9.106;2023-03-01T09:17:18;8.00;92.60
4487;DHT22;2256;48.740;9.106;2023-03-01T09:19:46;7.50;92.80
4487;DHT22;2256;48.740;9.106;2023-03-01T09:22:13;7.20;93.40
4487;DHT22;2256;48.740;9.106;2023-03-01T09:24:40;7.20;93.20
4487;DHT22;2256;48.740;9.106;2023-03-01T09:27:07;7.60;93.00
4487;DHT22;2256;48.740;9.106;2023-03-01T09:29:34;7.20;93.20
4487;DHT22;2256;48.740;9.106;2023-03-01T09:32:01;7.30;93.00
4487;DHT22;2256;48.740;9.106;2023-03-01T09:34:29;7.00;92.90
4487;DHT22;2256;48.740;9.106;2023-03-01T09:36:57;7.10;93.00
4487;DHT22;2256;48.740;9.106;2023-03-01T09:39:25;7.80;93.10
4487;DHT22;2256;48.740;9.106;2023-03-01T09:41:59;7.80;92.20
4487;DHT22;2256;48.740;9.106;2023-03-01T09:44:31;7.90;92.30
4487;DHT22;2256;48.740;9.106;2023-03-01T09:47:00;7.40;92.20
4487;DHT22;2256;48.740;9.106;2023-03-01T09:49:30;6.70;92.90
4487;DHT22;2256;48.740;9.106;2023-03-01T09:52:01;6.00;93.70
4487;DHT22;2256;48.740;9.106;2023-03-01T09:54:30;5.70;94.20
4487;DHT22;2256;48.740;9.106;2023-03-01T09:57:05;5.30;94.50
4487;DHT22;2256;48.740;9.106;2023-03-01T09:59:38;5.30;94.60
4487;DHT22;2256;48.740;9.106;2023-03-01T10:02:23;5.10;94.50
4487;DHT22;2256;48.740;9.106;2023-03-01T10:04:55;4.50;95.40
4487;DHT22;2256;48.740;9.106;2023-03-01T10:07:30;4.30;95.70
4487;DHT22;2256;48.740;9.106;2023-03-01T10:09:59;4.20;95.50
4487;DHT22;2256;48.740;9.106;2023-03-01T10:12:34;4.00;95.80
4487;DHT22;2256;48.740;9.106;2023-03-01T10:15:06;4.00;96.50
4487;DHT22;2256;48.740;9.106;2023-03-01T10:17:38;3.90;95.90
4487;DHT22;2256;48.740;9.106;2023-03-01T10:20:16;3.50;96.20
4487;DHT22;2256;48.740;9.106;2023-03-01T10:22:43;3.30;96.50
4487;DHT22;2256;48.740;9.106;2023-03-01T10:25:15;3.30;96.90
4487;DHT22;2256;48.740;9.106;2023-03-01T10:27:47;3.20;96.70
4487;DHT22;2256;48.740;9.106;2023-03-01T10:30:18;3.10;96.80
4487;DHT22;2256;48.740;9.106;2023-03-01T10:32:47;3.30;96.70
4487;DHT22;2256;48.740;9.106;2023-03-01T10:35:19;3.40;96.70
4487;DHT22;2256;48.740;9.106;2023-03-01T10:37:57;3.30;96.60
4487;DHT22;2256;48.740;9.106;2023-03-01T10:40:24;3.40;96.80
4487;DHT22;2256;48.740;9.106;2023-03-01T10:42:51;3.50;96.50
4487;DHT22;2256;48.740;9.106;2023-03-01T10:45:32;3.50;96.80
4487;DHT22;2256;48.740;9.106;2023-03-01T10:48:11;3.50;96.30
4487;DHT22;2256;48.740;9.106;2023-03-01T10:50:41;3.60;96.30
4487;DHT22;2256;48.740;9.106;2023-03-01T10:53:21;3.70;96.20
4487;DHT22;2256;48.740;9.106;2023-03-01T10:55:57;3.80;96.30
4487;DHT22;2256;48.740;9.106;2023-03-01T10:58:24;4.00;96.00
4487;DHT22;2256;48.740;9.106;2023-03-01T11:00:54;4.10;96.00
4487;DHT22;2256;48.740;9.106;2023-03-01T11:03:23;4.00;95.80
4487;DHT22;2256;48.740;9.106;2023-03-01T11:05:58;4.50;96.00
4487;DHT22;2256;48.740;9.106;2023-03-01T11:08:34;4.20;95.50
4487;DHT22;2256;48.740;9.106;2023-03-01T11:11:19;4.20;95.90
4487;DHT22;2256;48.740;9.106;2023-03-01T11:13:56;4.20;95.80
4487;DHT22;2256;48.740;9.106;2023-03-01T11:16:29;4.30;95.60
4487;DHT22;2256;48.740;9.106;2023-03-01T11:19:06;4.40;95.30
4487;DHT22;2256;48.740;9.106;2023-03-01T11:21:48;4.20;95.40
4487;DHT22;2256;48.740;9.106;2023-03-01T11:24:19;4.30;95.40
4487;DHT22;2256;48.740;9.106;2023-03-01T11:26:53;4.40;95.60
4487;DHT22;2256;48.740;9.106;2023-03-01T11:29:27;4.50;95.70
4487;DHT22;2256;48.740;9.106;2023-03-01T11:31:57;4.60;95.70
4487;DHT22;2256;48.740;9.106;2023-03-01T11:34:36;4.80;95.20
4487;DHT22;2256;48.740;9.106;2023-03-01T11:37:16;4.80;95.00
4487;DHT22;2256;48.740;9.106;2023-03-01T11:39:53;4.90;95.00
4487;DHT22;2256;48.740;9.106;2023-03-01T11:42:27;4.90;95.10
4487;DHT22;2256;48.740;9.106;2023-03-01T11:44:59;4.90;94.80
4487;DHT22;2256;48.740;9.106;2023-03-01T11:47:41;4.80;94.90
4487;DHT22;2256;48.740;9.106;2023-03-01T11:50:16;5.00;94.80
4487;DHT22;2256;48.740;9.106;2023-03-01T11:53:00;4.90;95.00
4487;DHT22;2256;48.740;9.106;2023-03-01T11:55:48;4.90;94.90
4487;DHT22;2256;48.740;9.106;2023-03-01T11:58:31;5.00;94.90
4487;DHT22;2256;48.740;9.106;2023-03-01T12:01:20;5.10;95.10
4487;DHT22;2256;48.740;9.106;2023-03-01T12:06:52;5.50;94.40
4487;DHT22;2256;48.740;9.106;2023-03-01T12:09:38;5.50;94.50
4487;DHT22;2256;48.740;9.106;2023-03-01T12:12:35;5.40;94.30
4487;DHT22;2256;48.740;9.106;2023-03-01T12:15:28;5.30;94.30
4487;DHT22;2256;48.740;9.106;2023-03-01T12:18:41;5.30;94.60
4487;DHT22;2256;48.740;9.106;2023-03-01T12:21:21;5.30;94.50
4487;DHT22;2256;48.740;9.106;2023-03-01T12:24:28;5.30;94.50
4487;DHT22;2256;48.740;9.106;2023-03-01T12:27:11;5.30;94.40
4487;DHT22;2256;48.740;9.106;2023-03-01T12:29:45;5.50;94.40
4487;DHT22;2256;48.740;9.106;2023-03-01T12:32:22;5.70;94.40
4487;DHT22;2256;48.740;9.106;2023-03-01T12:35:11;5.90;94.50
4487;DHT22;2256;48.740;9.106;2023-03-01T12:37:54;6.10;94.00
4487;DHT22;2256;48.740;9.106;2023-03-01T12:40:37;6.10;94.00
4487;DHT22;2256;48.740;9.106;2023-03-01T12:43:21;6.30;93.60
4487;DHT22;2256;48.740;9.106;2023-03-01T12:45:58;6.10;93.60
4487;DHT22;2256;48.740;9.106;2023-03-01T12:48:34;6.20;93.80
4487;DHT22;2256;48.740;9.106;2023-03-01T12:51:08;6.10;93.50
4487;DHT22;2256;48.740;9.106;2023-03-01T12:53:40;6.20;93.70
4487;DHT22;2256;48.740;9.106;2023-03-01T12:56:10;6.20;93.50
4487;DHT22;2256;48.740;9.106;2023-03-01T12:58:41;6.10;93.60
4487;DHT22;2256;48.740;9.106;2023-03-01T13:01:19;6.20;93.80
4487;DHT22;2256;48.740;9.106;2023-03-01T13:04:13;6.10;93.80
4487;DHT22;2256;48.740;9.106;2023-03-01T13:06:44;6.00;93.90
4487;DHT22;2256;48.740;9.106;2023-03-01T13:09:19;6.10;93.70
4487;DHT22;2256;48.740;9.106;2023-03-01T13:11:52;6.20;93.90
4487;DHT22;2256;48.740;9.106;2023-03-01T13:14:45;6.40;94.00
4487;DHT22;2256;48.740;9.106;2023-03-01T13:17:39;6.60;93.60
4487;DHT22;2256;48.740;9.106;2023-03-01T13:20:13;6.70;93.40
4487;DHT22;2256;48.740;9.106;2023-03-01T13:22:41;6.80;93.00
4487;DHT22;2256;48.740;9.106;2023-03-01T13:25:16;6.80;93.00
4487;DHT22;2256;48.740;9.106;2023-03-01T13:27:46;6.60;93.10
4487;DHT22;2256;48.740;9.106;2023-03-01T13:30:43;6.60;93.30
4487;DHT22;2256;48.740;9.106;2023-03-01T13:33:38;6.60;93.20
4487;DHT22;2256;48.740;9.106;2023-03-01T13:36:07;6.60;93.40
4487;DHT22;2256;48.740;9.106;2023-03-01T13:38:37;6.70;93.60
4487;DHT22;2256;48.740;9.106;2023-03-01T13:41:05;6.70;93.60
4487;DHT22;2256;48.740;9.106;2023-03-01T13:43:35;6.70;93.50
4487;DHT22;2256;48.740;9.106;2023-03-01T13:46:08;6.80;93.40
4487;DHT22;2256;48.740;9.106;2023-03-01T13:48:37;6.80;93.10
4487;DHT22;2256;48.740;9.106;2023-03-01T13:51:07;7.00;93.20
4487;DHT22;2256;48.740;9.106;2023-03-01T13:53:38;7.00;93.10
4487;DHT22;2256;48.740;9.106;2023-03-01T13:56:09;7.20;93.50
4487;DHT22;2256;48.740;9.106;2023-03-01T13:58:49;7.20;92.50
4487;DHT22;2256;48.740;9.106;2023-03-01T14:01:25;7.00;92.80
4487;DHT22;2256;48.740;9.106;2023-03-01T14:03:52;7.00;93.30
4487;DHT22;2256;48.740;9.106;2023-03-01T14:06:21;7.00;92.90
4487;DHT22;2256;48.740;9.106;2023-03-01T14:08:49;7.00;93.00
4487;DHT22;2256;48.740;9.106;2023-03-01T14:11:55;7.10;93.20
4487;DHT22;2256;48.740;9.106;2023-03-01T14:14:45;7.10;93.10
4487;DHT22;2256;48.740;9.106;2023-03-01T14:17:32;7.00;92.90
4487;DHT22;2256;48.740;9.106;2023-03-01T14:20:02;6.80;93.20
4487;DHT22;2256;48.740;9.106;2023-03-01T14:22:33;6.90;93.20
4487;DHT22;2256;48.740;9.106;2023-03-01T14:25:03;6.80;93.20
4487;DHT22;2256;48.740;9.106;2023-03-01T14:27:35;6.70;93.20
4487;DHT22;2256;48.740;9.106;2023-03-01T14:30:15;6.70;93.20
4487;DHT22;2256;48.740;9.106;2023-03-01T14:32:52;6.60;93.50
4487;DHT22;2256;48.740;9.106;2023-03-01T14:35:21;6.50;93.80
4487;DHT22;2256;48.740;9.106;2023-03-01T14:37:48;6.70;93.60
4487;DHT22;2256;48.740;9.106;2023-03-01T14:40:22;6.50;93.50
4487;DHT22;2256;48.740;9.106;2023-03-01T14:42:49;6.50;93.80
4487;DHT22;2256;48.740;9.106;2023-03-01T14:45:18;6.40;93.80
4487;DHT22;2256;48.740;9.106;2023-03-01T14:47:46;6.40;94.00
4487;DHT22;2256;48.740;9.106;2023-03-01T14:52:48;6.60;94.30
4487;DHT22;2256;48.740;9.106;2023-03-01T14:55:18;6.70;93.90
4487;DHT22;2256;48.740;9.106;2023-03-01T14:57:48;6.60;94.00
4487;DHT22;2256;48.740;9.106;2023-03-01T15:00:20;6.60;94.30
4487;DHT22;2256;48.740;9.106;2023-03-01T15:02:48;6.50;94.10
4487;DHT22;2256;48.740;9.106;2023-03-01T15:05:18;6.50;94.30
4487;DHT22;2256;48.740;9.106;2023-03-01T15:07:49;6.50;94.30
4487;DHT22;2256;48.740;9.106;2023-03-01T15:10:21;6.30;94.10
4487;DHT22;2256;48.740;9.106;2023-03-01T15:12:49;6.20;94.50
4487;DHT22;2256;48.740;9.106;2023-03-01T15:15:40;6.20;94.60
4487;DHT22;2256;48.740;9.106;2023-03-01T15:18:18;6.40;94.60
4487;DHT22;2256;48.740;9.106;2023-03-01T15:20:47;6.50;94.70
4487;DHT22;2256;48.740;9.106;2023-03-01T15:23:20;6.50;94.40
4487;DHT22;2256;48.740;9.106;2023-03-01T15:25:48;6.50;94.20
4487;DHT22;2256;48.740;9.106;2023-03-01T15:28:23;6.40;94.40
4487;DHT22;2256;48.740;9.106;2023-03-01T15:30:58;6.30;94.50
4487;DHT22;2256;48.740;9.106;2023-03-01T15:33:37;6.10;94.70
4487;DHT22;2256;48.740;9.106;2023-03-01T15:36:29;6.20;94.60
4487;DHT22;2256;48.740;9.106;2023-03-01T15:38:58;6.20;94.60
4487;DHT22;2256;48.740;9.106;2023-03-01T15:41:29;6.20;94.70
4487;DHT22;2256;48.740;9.106;2023-03-01T15:43:58;6.10;94.60
4487;DHT22;2256;48.740;9.106;2023-03-01T15:46:28;6.10;94.70
4487;DHT22;2256;48.740;9.106;2023-03-01T15:48:58;6.00;94.80
4487;DHT22;2256;48.740;9.106;2023-03-01T15:51:31;6.00;94.90
4487;DHT22;2256;48.740;9.106;2023-03-01T15:54:00;6.00;94.90
4487;DHT22;2256;48.740;9.106;2023-03-01T15:56:27;5.80;94.80
4487;DHT22;2256;48.740;9.106;2023-03-01T15:58:58;5.90;95.00
4487;DHT22;2256;48.740;9.106;2023-03-01T16:01:27;5.90;95.00
4487;DHT22;2256;48.740;9.106;2023-03-01T16:03:54;5.90;95.00
4487;DHT22;2256;48.740;9.106;2023-03-01T16:06:22;5.80;94.90
4487;DHT22;2256;48.740;9.106;2023-03-01T16:08:49;5.70;94.90
4487;DHT22;2256;48.740;9.106;2023-03-01T16:11:18;5.70;95.00
4487;DHT22;2256;48.740;9.106;2023-03-01T16:13:46;5.70;95.10
4487;DHT22;2256;48.740;9.106;2023-03-01T16:16:14;5.70;95.10
4487;DHT22;2256;48.740;9.106;2023-03-01T16:18:44;5.70;94.90
4487;DHT22;2256;48.740;9.106;2023-03-01T16:21:15;5.60;95.10
4487;DHT22;2256;48.740;9.106;2023-03-01T16:23:43;5.60;94.80
4487;DHT22;2256;48.740;9.106;2023-03-01T16:26:11;5.60;94.60
4487;DHT22;2256;48.740;9.106;2023-03-01T16:28:38;5.60;94.70
4487;DHT22;2256;48.740;9.106;2023-03-01T16:31:05;5.50;94.80
4487;DHT22;2256;48.740;9.106;2023-03-01T16:33:32;5.50;94.90
4487;DHT22;2256;48.740;9.106;2023-03-01T16:36:06;5.40;94.70
4487;DHT22;2256;48.740;9.106;2023-03-01T16:38:32;5.40;94.70
4487;DHT22;2256;48.740;9.106;2023-03-01T16:41:00;5.50;94.80